.
WxDataArchive / Data Records for 2015-11-22
2015-11-21 November 2015 2015-11-23

Data Records for Sunday, 22 November 2015

Time	Temp	Chill	HIndex	Humid	Dewpt	 Wind 	HiWind	WindDir	Rain 	Barom
-----	----	-----	------	-----	-----	------	------	-------	-----	-----
00:00	29.3	29.3	29.3	89	26.5	0	0	---	0.00	30.040 
00:05	29.3	29.3	29.3	89	26.5	0	0	---	0.00	30.040 
00:10	29.1	29.1	29.1	88	26.0	0	0	---	0.00	30.040 
00:15	29.0	29.0	29.0	88	25.9	0	0	---	0.00	30.044 
00:20	29.0	29.0	29.0	88	25.9	0	0	---	0.00	30.044 
00:25	28.8	28.8	28.8	88	25.7	0	0	---	0.00	30.044 
00:30	28.7	28.7	28.7	88	25.6	0	0	---	0.00	30.050 
00:35	28.5	28.5	28.5	88	25.4	0	0	---	0.00	30.050 
00:40	28.4	28.4	28.4	88	25.3	0	0	---	0.00	30.050 
00:45	28.2	28.2	28.2	88	25.1	0	0	---	0.00	30.050 
00:50	28.1	28.1	28.1	88	25.0	0	0	---	0.00	30.050 
00:55	28.1	28.1	28.1	89	25.3	0	0	---	0.00	30.050 
01:00	28.1	28.1	28.1	89	25.3	0	0	---	0.00	30.055 
01:05	28.2	28.2	28.2	89	25.4	0	0	---	0.00	30.055 
01:10	28.2	28.2	28.2	89	25.4	0	0	---	0.00	30.055 
01:15	28.2	28.2	28.2	89	25.4	0	0	---	0.00	30.057 
01:20	28.4	28.4	28.4	90	25.8	0	0	---	0.00	30.057 
01:25	28.4	28.4	28.4	90	25.8	0	0	---	0.00	30.057 
01:30	28.5	28.5	28.5	90	25.9	0	0	---	0.00	30.054 
01:35	28.7	28.7	28.7	90	26.1	0	0	---	0.00	30.054 
01:40	28.7	28.7	28.7	90	26.1	0	0	---	0.00	30.054 
01:45	28.8	28.8	28.8	90	26.2	0	0	---	0.00	30.065 
01:50	28.8	28.8	28.8	90	26.2	0	0	---	0.00	30.065 
01:55	28.8	28.8	28.8	90	26.2	0	0	---	0.00	30.065 
02:00	29.0	29.0	29.0	90	26.4	0	0	---	0.00	30.074 
02:05	29.0	29.0	29.0	90	26.4	0	0	---	0.00	30.074 
02:10	29.0	29.0	29.0	90	26.4	0	0	---	0.00	30.074 
02:15	29.1	29.1	29.1	90	26.5	0	0	---	0.00	30.079 
02:20	29.1	29.1	29.1	90	26.5	0	0	---	0.00	30.079 
02:25	29.1	29.1	29.1	90	26.5	0	0	---	0.00	30.079 
02:30	29.1	29.1	29.1	90	26.5	0	0	---	0.00	30.080 
02:35	29.1	29.1	29.1	90	26.5	0	0	---	0.00	30.080 
02:40	29.1	29.1	29.1	90	26.5	0	0	---	0.00	30.080 
02:45	29.1	29.1	29.1	90	26.5	0	0	---	0.00	30.086 
02:50	29.3	29.3	29.3	90	26.7	0	0	---	0.00	30.086 
02:55	29.1	29.1	29.1	90	26.5	0	0	---	0.00	30.086 
03:00	29.1	29.1	29.1	90	26.5	0	0	---	0.00	30.088 
03:05	29.1	29.1	29.1	90	26.5	0	0	---	0.00	30.088 
03:10	29.1	29.1	29.1	90	26.5	0	0	---	0.00	30.088 
03:15	29.1	29.1	29.1	90	26.5	0	0	---	0.00	30.095 
03:20	29.1	29.1	29.1	91	26.8	0	0	---	0.00	30.095 
03:25	29.1	29.1	29.1	91	26.8	0	0	---	0.00	30.095 
03:30	29.1	29.1	29.1	91	26.8	0	0	---	0.00	30.101 
03:35	29.1	29.1	29.1	91	26.8	0	0	---	0.00	30.101 
03:40	29.1	29.1	29.1	91	26.8	0	0	---	0.00	30.101 
03:45	29.1	29.1	29.1	91	26.8	0	0	---	0.00	30.104 
03:50	29.1	29.1	29.1	91	26.8	0	0	---	0.00	30.104 
03:55	29.1	29.1	29.1	91	26.8	0	0	---	0.00	30.104 
04:00	29.1	29.1	29.1	91	26.8	0	0	---	0.00	30.104 
04:05	29.3	29.3	29.3	91	27.0	0	0	---	0.00	30.104 
04:10	29.3	29.3	29.3	91	27.0	0	0	---	0.00	30.104 
04:15	29.1	29.1	29.1	91	26.8	0	0	---	0.00	30.109 
04:20	28.7	28.7	28.7	90	26.1	0	0	---	0.00	30.109 
04:25	28.2	28.2	28.2	90	25.7	0	0	---	0.00	30.109 
04:30	27.8	27.8	27.8	90	25.3	0	0	---	0.00	30.119 
04:35	27.3	27.3	27.3	89	24.5	0	0	---	0.00	30.119 
04:40	26.9	26.9	26.9	89	24.1	0	0	---	0.00	30.119 
04:45	26.6	26.6	26.6	89	23.8	0	0	---	0.00	30.124 
04:50	26.3	26.3	26.3	89	23.5	0	0	---	0.00	30.124 
04:55	26.0	26.0	26.0	89	23.2	0	0	---	0.00	30.124 
05:00	25.7	25.7	25.7	89	22.9	0	0	---	0.00	30.131 
05:05	25.4	25.4	25.4	89	22.6	0	0	---	0.00	30.131 
05:10	25.0	25.0	25.0	89	22.2	0	0	---	0.00	30.131 
05:15	24.7	24.7	24.7	88	21.7	0	0	---	0.00	30.135 
05:20	24.4	24.4	24.4	88	21.4	0	0	---	0.00	30.135 
05:25	24.1	24.1	24.1	88	21.1	0	0	---	0.00	30.135 
05:30	23.9	23.9	23.9	88	20.9	0	0	---	0.00	30.134 
05:35	23.6	23.6	23.6	88	20.6	0	0	---	0.00	30.134 
05:40	23.3	23.3	23.3	88	20.3	0	0	---	0.00	30.134 
05:45	23.2	23.2	23.2	88	20.2	0	0	---	0.00	30.142 
05:50	22.9	22.9	22.9	88	19.9	0	0	---	0.00	30.142 
05:55	22.5	22.5	22.5	88	19.5	0	0	---	0.00	30.142 
06:00	22.2	22.2	22.2	88	19.2	0	0	---	0.00	30.149 
06:05	22.1	22.1	22.1	88	19.1	0	0	---	0.00	30.149 
06:10	21.8	21.8	21.8	88	18.8	0	0	---	0.00	30.149 
06:15	21.6	21.6	21.6	88	18.6	0	0	---	0.00	30.157 
06:20	21.4	21.4	21.4	88	18.4	0	0	---	0.00	30.157 
06:25	21.1	21.1	21.1	88	18.1	0	0	---	0.00	30.157 
06:30	21.0	21.0	21.0	88	18.0	0	0	---	0.00	30.160 
06:35	20.8	20.8	20.8	88	17.8	0	0	---	0.00	30.160 
06:40	20.5	20.5	20.5	87	17.3	0	0	---	0.00	30.160 
06:45	20.5	20.5	20.5	88	17.5	0	0	---	0.00	30.163 
06:50	20.3	20.3	20.3	87	17.1	0	0	---	0.00	30.163 
06:55	20.0	20.0	20.0	87	16.8	0	0	---	0.00	30.163 
07:00	19.9	19.9	19.9	87	16.7	0	0	---	0.00	30.168 
07:05	19.7	19.7	19.7	87	16.5	0	0	---	0.00	30.168 
07:10	19.5	19.5	19.5	87	16.3	0	0	---	0.00	30.168 
07:15	19.4	19.4	19.4	87	16.2	0	0	---	0.00	30.177 
07:20	19.2	19.2	19.2	87	16.0	0	0	---	0.00	30.177 
07:25	18.9	18.9	18.9	87	15.7	0	0	---	0.00	30.177 
07:30	18.8	18.8	18.8	87	15.6	0	0	---	0.00	30.177 
07:35	18.6	18.6	18.6	87	15.4	0	0	---	0.00	30.177 
07:40	18.4	18.4	18.4	87	15.2	0	0	---	0.00	30.177 
07:45	18.4	18.4	18.4	87	15.2	0	0	---	0.00	30.182 
07:50	18.3	18.3	18.3	87	15.1	0	0	---	0.00	30.182 
07:55	18.1	18.1	18.1	87	14.9	0	0	---	0.00	30.182 
08:00	18.1	18.1	18.1	87	14.9	0	0	---	0.00	30.187 
08:05	18.0	18.0	18.0	87	14.8	0	0	---	0.00	30.187 
08:10	18.0	18.0	18.0	87	14.8	0	0	---	0.00	30.187 
08:15	18.0	18.0	18.0	87	14.8	0	0	---	0.00	30.194 
08:20	18.0	18.0	18.0	87	14.8	0	2	248	0.00	30.194 
08:25	18.0	18.0	18.0	87	14.8	0	1	248	0.00	30.194 
08:30	18.0	18.0	18.0	86	14.5	0	2	248	0.00	30.196 
08:35	18.0	18.0	18.0	86	14.5	0	2	248	0.00	30.196 
08:40	18.0	18.0	18.0	86	14.5	1	2	248	0.00	30.196 
08:45	18.1	18.1	18.1	86	14.6	0	2	248	0.00	30.200 
08:50	18.1	18.1	18.1	86	14.6	0	1	248	0.00	30.200 
08:55	18.3	18.3	18.3	86	14.8	0	2	248	0.00	30.200 
09:00	18.4	18.4	18.4	86	14.9	0	2	248	0.00	30.209 
09:05	18.4	18.4	18.4	86	14.9	0	2	248	0.00	30.209 
09:10	18.6	18.6	18.6	86	15.1	0	1	248	0.00	30.209 
09:15	18.9	18.9	18.9	86	15.4	0	2	248	0.00	30.210 
09:20	19.1	19.1	19.1	86	15.6	0	1	248	0.00	30.210 
09:25	19.2	19.2	19.2	86	15.7	0	2	135	0.00	30.210 
09:30	19.5	19.5	19.5	86	16.0	0	1	135	0.00	30.211 
09:35	19.9	19.9	19.9	86	16.4	0	1	135	0.00	30.211 
09:40	20.0	20.0	20.0	86	16.5	0	2	135	0.00	30.211 
09:45	20.2	20.2	20.2	86	16.7	0	2	135	0.00	30.212 
09:50	20.5	20.5	20.5	86	17.0	0	1	180	0.00	30.212 
09:55	20.6	20.6	20.6	85	16.8	0	2	202	0.00	30.212 
10:00	20.8	20.8	20.8	85	17.0	0	2	202	0.00	30.218 
10:05	21.1	21.1	21.1	85	17.3	0	2	202	0.00	30.218 
10:10	21.1	21.1	21.1	85	17.3	1	3	225	0.00	30.218 
10:15	21.3	21.3	21.3	84	17.2	1	3	225	0.00	30.224 
10:20	21.4	21.4	21.4	84	17.3	1	3	248	0.00	30.224 
10:25	21.6	21.6	21.6	84	17.5	1	2	248	0.00	30.224 
10:30	21.9	21.9	21.9	84	17.8	0	2	248	0.00	30.226 
10:35	22.1	22.1	22.1	84	18.0	0	2	248	0.00	30.226 
10:40	22.4	22.4	22.4	84	18.3	0	3	248	0.00	30.226 
10:45	22.5	22.5	22.5	84	18.4	1	2	248	0.00	30.225 
10:50	22.9	22.9	22.9	84	18.8	0	2	248	0.00	30.225 
10:55	23.0	23.0	23.0	83	18.6	0	2	248	0.00	30.225 
11:00	23.2	23.2	23.2	83	18.8	0	2	248	0.00	30.224 
11:05	23.3	23.3	23.3	83	18.9	0	2	248	0.00	30.224 
11:10	23.6	23.6	23.6	83	19.2	0	1	248	0.00	30.224 
11:15	23.8	23.8	23.8	82	19.1	0	2	248	0.00	30.224 
11:20	23.9	23.9	23.9	82	19.2	0	2	248	0.00	30.224 
11:25	24.1	24.1	24.1	82	19.4	0	2	248	0.00	30.224 
11:30	24.4	24.4	24.4	82	19.7	0	1	248	0.00	30.224 
11:35	24.7	24.7	24.7	82	20.0	0	1	248	0.00	30.224 
11:40	24.7	24.7	24.7	81	19.7	0	2	248	0.00	30.224 
11:45	24.7	24.7	24.7	81	19.7	0	2	248	0.00	30.222 
11:50	24.7	24.7	24.7	81	19.7	0	2	248	0.00	30.222 
11:55	24.8	24.8	24.8	81	19.8	0	2	248	0.00	30.222 
12:00	25.1	25.1	25.1	81	20.1	0	1	248	0.00	30.217 
12:05	25.3	25.3	25.3	81	20.3	0	1	248	0.00	30.217 
12:10	25.4	25.4	25.4	81	20.4	0	1	248	0.00	30.217 
12:15	25.6	25.6	25.6	81	20.6	0	2	248	0.00	30.209 
12:20	25.7	25.7	25.7	80	20.4	0	1	248	0.00	30.209 
12:25	25.6	25.6	25.6	80	20.3	0	3	248	0.00	30.209 
12:30	25.4	25.4	25.4	79	19.8	1	3	248	0.00	30.210 
12:35	25.6	25.6	25.6	79	20.0	0	1	248	0.00	30.210 
12:40	25.6	25.6	25.6	79	20.0	0	2	248	0.00	30.210 
12:45	25.6	25.6	25.6	79	20.0	1	3	248	0.00	30.206 
12:50	25.6	25.6	25.6	78	19.7	1	2	292	0.00	30.206 
12:55	25.7	25.7	25.7	79	20.1	0	2	292	0.00	30.206 
13:00	25.8	25.8	25.8	78	19.9	1	3	270	0.00	30.206 
13:05	25.6	25.6	25.6	78	19.7	1	3	292	0.00	30.206 
13:10	25.6	25.6	25.6	78	19.7	1	3	270	0.00	30.206 
13:15	25.8	25.8	25.8	79	20.2	0	1	270	0.00	30.204 
13:20	25.8	25.8	25.8	78	19.9	0	2	270	0.00	30.204 
13:25	26.1	26.1	26.1	79	20.5	0	1	270	0.00	30.204 
13:30	26.6	26.6	26.6	79	21.0	0	2	270	0.00	30.198 
13:35	26.9	26.9	26.9	79	21.3	0	1	270	0.00	30.198 
13:40	26.9	26.9	26.9	78	21.0	0	2	270	0.00	30.198 
13:45	26.9	26.9	26.9	78	21.0	0	1	270	0.00	30.191 
13:50	27.0	27.0	27.0	77	20.8	0	2	270	0.00	30.191 
13:55	27.0	27.0	27.0	77	20.8	0	1	270	0.00	30.191 
14:00	27.3	27.3	27.3	78	21.4	0	2	270	0.00	30.191 
14:05	27.6	27.6	27.6	78	21.7	0	1	270	0.00	30.191 
14:10	27.6	27.6	27.6	78	21.7	0	1	270	0.00	30.191 
14:15	27.8	27.8	27.8	77	21.5	0	1	270	0.00	30.188 
14:20	27.6	27.6	27.6	76	21.0	0	2	270	0.00	30.188 
14:25	27.5	27.5	27.5	75	20.6	0	2	270	0.00	30.188 
14:30	27.5	27.5	27.5	75	20.6	0	1	270	0.00	30.189 
14:35	27.5	27.5	27.5	76	20.9	0	1	270	0.00	30.189 
14:40	27.6	27.6	27.6	77	21.4	0	1	270	0.00	30.189 
14:45	27.8	27.8	27.8	76	21.2	0	1	270	0.00	30.186 
14:50	27.8	27.8	27.8	75	20.9	0	1	270	0.00	30.186 
14:55	27.8	27.8	27.8	75	20.9	0	1	270	0.00	30.186 
15:00	27.8	27.8	27.8	75	20.9	0	1	270	0.00	30.175 
15:05	27.6	27.6	27.6	76	21.0	0	1	270	0.00	30.175 
15:10	27.8	27.8	27.8	76	21.2	0	1	270	0.00	30.175 
15:15	27.9	27.9	27.9	77	21.6	0	0	---	0.00	30.175 
15:20	28.1	28.1	28.1	77	21.8	0	0	---	0.00	30.175 
15:25	28.1	28.1	28.1	77	21.8	0	1	270	0.00	30.175 
15:30	28.1	28.1	28.1	76	21.5	0	1	270	0.00	30.176 
15:35	28.1	28.1	28.1	76	21.5	0	0	---	0.00	30.176 
15:40	28.1	28.1	28.1	77	21.8	0	1	270	0.00	30.176 
15:45	28.1	28.1	28.1	76	21.5	0	1	270	0.00	30.178 
15:50	27.9	27.9	27.9	76	21.3	0	1	270	0.00	30.178 
15:55	27.8	27.8	27.8	76	21.2	0	1	270	0.00	30.178 
16:00	27.6	27.6	27.6	76	21.0	0	0	---	0.00	30.176 
16:05	27.5	27.5	27.5	76	20.9	0	2	270	0.00	30.176 
16:10	27.5	27.5	27.5	76	20.9	0	1	270	0.00	30.176 
16:15	27.3	27.3	27.3	75	20.4	0	1	270	0.00	30.182 
16:20	27.2	27.2	27.2	76	20.7	0	1	270	0.00	30.182 
16:25	27.0	27.0	27.0	76	20.5	0	2	270	0.00	30.182 
16:30	26.7	26.7	26.7	76	20.2	0	2	270	0.00	30.186 
16:35	26.7	26.7	26.7	76	20.2	0	1	270	0.00	30.186 
16:40	26.4	26.4	26.4	76	19.9	0	1	270	0.00	30.186 
16:45	26.3	26.3	26.3	76	19.8	0	0	---	0.00	30.191 
16:50	26.0	26.0	26.0	75	19.2	0	1	270	0.00	30.191 
16:55	25.7	25.7	25.7	76	19.2	0	0	---	0.00	30.191 
17:00	25.6	25.6	25.6	76	19.1	0	0	---	0.00	30.190 
17:05	25.3	25.3	25.3	76	18.8	0	0	---	0.00	30.190 
17:10	25.0	25.0	25.0	77	18.8	0	0	---	0.00	30.190 
17:15	24.7	24.7	24.7	77	18.5	0	0	---	0.00	30.191 
17:20	24.2	24.2	24.2	77	18.1	0	0	---	0.00	30.191 
17:25	23.9	23.9	23.9	76	17.5	0	0	---	0.00	30.191 
17:30	23.5	23.5	23.5	75	16.8	0	0	---	0.00	30.192 
17:35	23.2	23.2	23.2	75	16.5	0	0	---	0.00	30.192 
17:40	22.9	22.9	22.9	74	15.9	0	0	---	0.00	30.192 
17:45	22.5	22.5	22.5	74	15.5	0	0	---	0.00	30.201 
17:50	22.2	22.2	22.2	74	15.2	0	0	---	0.00	30.201 
17:55	22.1	22.1	22.1	74	15.1	0	0	---	0.00	30.201 
18:00	21.8	21.8	21.8	74	14.8	0	0	---	0.00	30.201 
18:05	21.4	21.4	21.4	74	14.4	0	0	---	0.00	30.201 
18:10	21.3	21.3	21.3	74	14.3	0	0	---	0.00	30.201 
18:15	21.1	21.1	21.1	75	14.4	0	0	---	0.00	30.206 
18:20	20.8	20.8	20.8	75	14.1	0	0	---	0.00	30.206 
18:25	20.6	20.6	20.6	76	14.3	0	0	---	0.00	30.206 
18:30	20.5	20.5	20.5	76	14.2	0	0	---	0.00	30.206 
18:35	20.2	20.2	20.2	76	13.9	0	0	---	0.00	30.206 
18:40	19.9	19.9	19.9	77	13.9	0	0	---	0.00	30.206 
18:45	19.7	19.7	19.7	77	13.7	0	0	---	0.00	30.211 
18:50	19.2	19.2	19.2	78	13.5	0	0	---	0.00	30.211 
18:55	19.1	19.1	19.1	78	13.4	0	0	---	0.00	30.211 
19:00	18.8	18.8	18.8	79	13.4	0	0	---	0.00	30.216 
19:05	18.4	18.4	18.4	79	13.0	0	0	---	0.00	30.216 
19:10	18.3	18.3	18.3	79	12.9	0	0	---	0.00	30.216 
19:15	18.0	18.0	18.0	80	12.9	0	0	---	0.00	30.218 
19:20	17.8	17.8	17.8	80	12.7	0	0	---	0.00	30.218 
19:25	17.7	17.7	17.7	81	12.9	0	0	---	0.00	30.218 
19:30	17.5	17.5	17.5	82	13.0	0	0	---	0.00	30.211 
19:35	17.5	17.5	17.5	82	13.0	0	0	---	0.00	30.211 
19:40	17.3	17.3	17.3	82	12.8	0	0	---	0.00	30.211 
19:45	17.3	17.3	17.3	83	13.0	0	0	---	0.00	30.210 
19:50	17.2	17.2	17.2	83	12.9	0	0	---	0.00	30.210 
19:55	17.0	17.0	17.0	83	12.7	0	0	---	0.00	30.210 
20:00	17.2	17.2	17.2	84	13.2	0	0	---	0.00	30.200 
20:05	17.2	17.2	17.2	84	13.2	0	0	---	0.00	30.200 
20:10	17.3	17.3	17.3	85	13.6	0	0	---	0.00	30.200 
20:15	17.5	17.5	17.5	85	13.8	0	0	---	0.00	30.193 
20:20	17.5	17.5	17.5	85	13.8	0	0	---	0.00	30.193 
20:25	17.5	17.5	17.5	85	13.8	0	0	---	0.00	30.193 
20:30	17.3	17.3	17.3	85	13.6	0	0	---	0.00	30.194 
20:35	17.2	17.2	17.2	85	13.5	0	0	---	0.00	30.194 
20:40	17.0	17.0	17.0	85	13.3	0	0	---	0.00	30.194 
20:45	16.9	16.9	16.9	85	13.2	0	0	---	0.00	30.194 
20:50	16.7	16.7	16.7	85	13.0	0	0	---	0.00	30.194 
20:55	16.5	16.5	16.5	86	13.1	0	0	---	0.00	30.194 
21:00	16.4	16.4	16.4	86	13.0	0	0	---	0.00	30.189 
21:05	16.4	16.4	16.4	86	13.0	0	0	---	0.00	30.189 
21:10	16.4	16.4	16.4	86	13.0	0	0	---	0.00	30.189 
21:15	16.2	16.2	16.2	86	12.8	0	0	---	0.00	30.184 
21:20	16.1	16.1	16.1	86	12.7	0	0	---	0.00	30.184 
21:25	15.9	15.9	15.9	86	12.5	0	0	---	0.00	30.184 
21:30	15.7	15.7	15.7	86	12.3	0	0	---	0.00	30.188 
21:35	15.6	15.6	15.6	86	12.2	0	0	---	0.00	30.188 
21:40	15.4	15.4	15.4	86	12.0	0	0	---	0.00	30.188 
21:45	15.2	15.2	15.2	85	11.5	0	0	---	0.00	30.192 
21:50	15.1	15.1	15.1	86	11.7	0	0	---	0.00	30.192 
21:55	15.1	15.1	15.1	86	11.7	0	0	---	0.00	30.192 
22:00	15.1	15.1	15.1	86	11.7	0	0	---	0.00	30.191 
22:05	15.2	15.2	15.2	86	11.8	0	0	---	0.00	30.191 
22:10	15.4	15.4	15.4	86	12.0	0	0	---	0.00	30.191 
22:15	15.6	15.6	15.6	87	12.4	0	0	---	0.00	30.190 
22:20	15.9	15.9	15.9	87	12.7	0	0	---	0.00	30.190 
22:25	16.2	16.2	16.2	87	13.0	0	0	---	0.00	30.190 
22:30	16.5	16.5	16.5	87	13.3	0	0	---	0.00	30.191 
22:35	16.9	16.9	16.9	87	13.7	0	0	---	0.00	30.191 
22:40	17.0	17.0	17.0	87	13.8	0	0	---	0.00	30.191 
22:45	17.3	17.3	17.3	87	14.1	0	0	---	0.00	30.187 
22:50	17.5	17.5	17.5	86	14.0	0	0	---	0.00	30.187 
22:55	17.7	17.7	17.7	86	14.2	0	0	---	0.00	30.187 
23:00	17.8	17.8	17.8	86	14.3	0	0	---	0.00	30.181 
23:05	17.8	17.8	17.8	86	14.3	0	0	---	0.00	30.181 
23:10	17.8	17.8	17.8	85	14.1	0	0	---	0.00	30.181 
23:15	18.0	18.0	18.0	85	14.3	0	0	---	0.00	30.176 
23:20	18.0	18.0	18.0	85	14.3	0	0	---	0.00	30.176 
23:25	18.1	18.1	18.1	84	14.1	0	0	---	0.00	30.176 
23:30	18.1	18.1	18.1	84	14.1	0	0	---	0.00	30.176 
23:35	18.3	18.3	18.3	84	14.3	0	0	---	0.00	30.176 
23:40	18.3	18.3	18.3	83	14.0	0	0	---	0.00	30.176 
23:45	18.3	18.3	18.3	83	14.0	0	0	---	0.00	30.172 
23:50	18.3	18.3	18.3	82	13.7	0	0	---	0.00	30.172 
23:55	18.3	18.3	18.3	82	13.7	0	0	---	0.00	30.172 

CoCoRaHS
IN-AL-39
A2 Web Hosting
Creative Commons License
GoDaddy
search engine by freefind advanced

loaded 2018-11-17 06:21:40 • last modified 2010-11-18 10:43:29
Privacy PolicyDisclaimer
• wx.awcolley.com is powered by PmWiki v.2002016 •
• all content (unless otherwise noted) © 2018 A W Colley